Time;durP1;ratioP1;P1;durP2;ratioP2;P2;SDS_P1;SDS_P2;PMS_P1;PMS_P2;Temp;Humidity;BMP_temperature;BMP_pressure;BME280_temperature;BME280_humidity;BME280_pressure;Samples;Min_cycle;Max_cycle;Signal;HPM_P1;HPM_P2
2023/04/08 00:00:54;;;;;;;20.30;8.30;;;6.60;99.90;;;;;;5066832;28;20188;-76
2023/04/08 00:03:20;;;;;;;15.50;7.30;;;6.50;99.90;;;;;;5068154;28;20584;-75
2023/04/08 00:05:45;;;;;;;20.37;8.53;;;6.50;99.90;;;;;;5069001;28;20188;-76
2023/04/08 00:08:12;;;;;;;16.80;8.00;;;6.40;99.90;;;;;;5066431;28;20431;-79
2023/04/08 00:10:37;;;;;;;13.57;7.77;;;6.40;99.90;;;;;;5065136;28;20182;-78
2023/04/08 00:13:03;;;;;;;29.73;9.90;;;6.40;99.90;;;;;;5064170;28;21319;-79
2023/04/08 00:15:29;;;;;;;16.20;7.63;;;6.40;99.90;;;;;;5067041;28;21551;-76
2023/04/08 00:17:55;;;;;;;19.40;8.97;;;6.40;99.90;;;;;;5087451;28;20266;-76
2023/04/08 00:20:22;;;;;;;23.93;10.17;;;6.30;99.90;;;;;;5067110;28;20723;-76
2023/04/08 00:22:48;;;;;;;17.10;9.50;;;6.40;99.90;;;;;;5071242;28;20494;-76
2023/04/08 00:25:13;;;;;;;18.43;8.90;;;6.40;99.90;;;;;;5070652;28;20467;-78
2023/04/08 00:27:39;;;;;;;17.63;8.70;;;6.40;99.90;;;;;;5069346;28;20185;-76
2023/04/08 00:30:05;;;;;;;21.33;8.77;;;6.40;99.90;;;;;;5072205;28;20212;-76
2023/04/08 00:32:31;;;;;;;22.23;8.93;;;6.50;99.90;;;;;;5068171;28;20213;-77
2023/04/08 00:34:57;;;;;;;18.30;9.30;;;6.50;99.90;;;;;;5070071;28;20511;-78
2023/04/08 00:37:23;;;;;;;15.40;6.03;;;6.50;99.90;;;;;;5073659;28;20419;-77
2023/04/08 00:39:50;;;;;;;18.43;8.83;;;6.50;99.90;;;;;;5072817;28;20715;-76
2023/04/08 00:42:16;;;;;;;20.93;9.90;;;6.50;99.90;;;;;;5074779;28;20442;-78
2023/04/08 00:44:42;;;;;;;19.33;9.33;;;6.50;99.90;;;;;;5075446;28;20475;-76
2023/04/08 00:47:11;;;;;;;16.87;8.67;;;6.60;99.90;;;;;;5075433;28;20962;-77
2023/04/08 00:49:37;;;;;;;21.30;10.40;;;6.60;99.90;;;;;;5076980;28;20184;-75
2023/04/08 00:52:03;;;;;;;16.80;9.03;;;6.60;99.90;;;;;;5072668;28;20427;-79
2023/04/08 00:54:30;;;;;;;16.13;7.53;;;6.60;99.90;;;;;;5075210;28;20673;-78
2023/04/08 00:56:58;;;;;;;16.83;8.10;;;6.60;99.90;;;;;;5077870;28;20185;-76
2023/04/08 00:59:24;;;;;;;29.57;9.20;;;6.60;99.90;;;;;;5091985;28;20865;-76
2023/04/08 01:02:00;;;;;;;19.07;8.70;;;6.60;99.90;;;;;;5073812;28;20443;-76
2023/04/08 01:04:38;;;;;;;15.73;7.60;;;6.60;99.90;;;;;;5073175;28;20521;-76
2023/04/08 01:07:26;;;;;;;19.60;9.17;;;6.60;99.90;;;;;;5074488;28;20925;-76
2023/04/08 01:09:56;;;;;;;14.07;8.43;;;6.60;99.90;;;;;;5075792;28;20776;-79
2023/04/08 01:12:26;;;;;;;18.93;9.10;;;6.60;99.90;;;;;;5076678;28;20461;-79
2023/04/08 01:15:00;;;;;;;14.97;7.83;;;6.60;99.90;;;;;;5091433;28;20524;-78
2023/04/08 01:17:26;;;;;;;20.30;8.13;;;6.60;99.90;;;;;;5076549;28;20431;-77
2023/04/08 01:19:56;;;;;;;20.60;8.40;;;6.50;99.90;;;;;;5076221;28;20451;-77
2023/04/08 01:22:33;;;;;;;20.17;8.30;;;6.50;99.90;;;;;;5072600;28;20453;-77
2023/04/08 01:25:05;;;;;;;17.23;8.30;;;6.50;99.90;;;;;;5075231;28;20458;-77
2023/04/08 01:27:31;;;;;;;26.80;9.40;;;6.50;99.90;;;;;;5074394;28;20990;-79
2023/04/08 01:29:58;;;;;;;19.30;8.47;;;6.50;99.90;;;;;;5075976;28;20451;-78
2023/04/08 01:32:26;;;;;;;13.90;7.90;;;6.40;99.90;;;;;;5077266;28;20538;-78
2023/04/08 01:34:53;;;;;;;18.17;7.40;;;6.50;99.90;;;;;;5079097;28;20438;-77
2023/04/08 01:37:20;;;;;;;24.43;11.03;;;6.40;99.90;;;;;;5082773;28;20455;-84
2023/04/08 01:39:47;;;;;;;16.60;9.53;;;6.40;99.90;;;;;;5092339;28;20454;-84
2023/04/08 01:42:14;;;;;;;15.50;8.70;;;6.40;99.90;;;;;;5093065;28;20721;-83
2023/04/08 01:44:41;;;;;;;18.90;8.93;;;6.30;99.90;;;;;;5091667;28;20481;-83
2023/04/08 01:47:07;;;;;;;20.80;7.80;;;6.40;99.90;;;;;;5092183;28;20423;-83
2023/04/08 01:49:33;;;;;;;12.83;8.17;;;6.40;99.90;;;;;;5093552;28;20452;-83
2023/04/08 01:52:00;;;;;;;23.50;10.07;;;6.40;99.90;;;;;;5091672;28;20470;-83
2023/04/08 01:54:26;;;;;;;16.37;8.73;;;6.40;99.90;;;;;;5095020;28;20442;-83
2023/04/08 01:56:56;;;;;;;16.30;9.37;;;6.30;99.90;;;;;;5094403;28;20442;-82
2023/04/08 01:59:28;;;;;;;18.90;8.23;;;6.30;99.90;;;;;;5110760;28;20195;-82
2023/04/08 02:01:55;;;;;;;17.23;8.93;;;6.30;99.90;;;;;;5091529;28;20455;-81
2023/04/08 02:04:21;;;;;;;23.03;8.83;;;6.30;99.90;;;;;;5079400;28;20571;-75
2023/04/08 02:06:47;;;;;;;22.60;8.93;;;6.40;99.90;;;;;;5090512;28;20525;-76
2023/04/08 02:09:12;;;;;;;18.47;9.00;;;6.30;99.90;;;;;;5072062;28;20254;-78
2023/04/08 02:11:38;;;;;;;16.77;9.37;;;6.30;99.90;;;;;;5072144;28;20231;-75
2023/04/08 02:14:04;;;;;;;23.30;9.67;;;6.30;99.90;;;;;;5072797;28;20249;-76
2023/04/08 02:16:32;;;;;;;17.80;9.03;;;6.30;99.90;;;;;;5071965;28;20187;-76
2023/04/08 02:19:14;;;;;;;22.67;11.27;;;6.40;99.90;;;;;;5069536;28;20302;-78
2023/04/08 02:21:51;;;;;;;22.47;9.70;;;6.40;99.90;;;;;;5069517;28;20831;-76
2023/04/08 02:24:17;;;;;;;25.27;10.97;;;6.40;99.90;;;;;;5073560;28;20566;-77
2023/04/08 02:26:44;;;;;;;25.83;10.50;;;6.40;99.90;;;;;;5072119;28;20447;-78
2023/04/08 02:29:15;;;;;;;22.57;11.77;;;6.50;99.90;;;;;;5068641;28;21132;-75
2023/04/08 02:31:42;;;;;;;24.20;11.90;;;6.40;99.90;;;;;;5070668;28;21049;-74
2023/04/08 02:34:10;;;;;;;22.57;10.50;;;6.40;99.90;;;;;;5065432;28;20447;-76
2023/04/08 02:36:36;;;;;;;19.07;11.10;;;6.40;99.90;;;;;;5067338;28;20503;-79
2023/04/08 02:39:02;;;;;;;25.03;11.63;;;6.30;99.90;;;;;;5071342;28;20550;-80
2023/04/08 02:41:29;;;;;;;32.57;11.60;;;6.30;99.90;;;;;;5071167;28;20541;-73
2023/04/08 02:43:55;;;;;;;26.83;10.70;;;6.30;99.90;;;;;;5070500;28;20466;-79
2023/04/08 02:46:21;;;;;;;25.73;11.90;;;6.20;99.90;;;;;;5071436;28;20435;-75
2023/04/08 02:48:47;;;;;;;29.90;11.97;;;6.30;99.90;;;;;;5070733;28;20188;-79
2023/04/08 02:51:12;;;;;;;23.77;10.43;;;6.20;99.90;;;;;;5073387;28;20174;-81
2023/04/08 02:53:38;;;;;;;23.27;10.80;;;6.20;99.90;;;;;;5072086;28;20536;-78
2023/04/08 02:56:04;;;;;;;26.67;12.93;;;6.20;99.90;;;;;;5071844;28;20188;-76
2023/04/08 02:58:30;;;;;;;19.93;10.40;;;6.20;99.90;;;;;;5070199;28;20203;-79
2023/04/08 03:00:55;;;;;;;23.67;11.10;;;6.20;99.90;;;;;;5071889;28;20538;-79
2023/04/08 03:03:28;;;;;;;28.90;10.73;;;6.10;99.90;;;;;;5070710;28;20215;-78
2023/04/08 03:05:54;;;;;;;21.70;10.27;;;6.10;99.90;;;;;;5069216;28;20180;-77
2023/04/08 03:08:20;;;;;;;18.80;10.27;;;6.10;99.90;;;;;;5071157;28;20911;-77
2023/04/08 03:10:46;;;;;;;32.67;11.97;;;6.10;99.90;;;;;;5069868;28;20481;-76
2023/04/08 03:13:12;;;;;;;21.37;9.80;;;6.10;99.90;;;;;;5068008;28;20462;-78
2023/04/08 03:15:37;;;;;;;25.17;11.57;;;6.10;99.90;;;;;;5071171;28;20173;-75
2023/04/08 03:18:03;;;;;;;24.27;10.83;;;6.10;99.90;;;;;;5071758;28;20238;-76
2023/04/08 03:20:29;;;;;;;27.47;10.80;;;6.00;99.90;;;;;;5068432;28;20212;-75
2023/04/08 03:22:55;;;;;;;20.83;11.63;;;6.00;99.90;;;;;;5068207;28;20205;-76
2023/04/08 03:25:20;;;;;;;20.87;10.57;;;6.00;99.90;;;;;;5067633;28;20205;-76
2023/04/08 03:27:46;;;;;;;24.80;10.50;;;6.00;99.90;;;;;;5066812;28;20189;-75
2023/04/08 03:30:12;;;;;;;26.07;10.43;;;6.00;99.90;;;;;;5068742;28;20188;-76
2023/04/08 03:32:37;;;;;;;31.23;10.50;;;6.00;99.90;;;;;;5068401;28;20708;-75
2023/04/08 03:35:05;;;;;;;26.27;10.70;;;6.00;99.90;;;;;;5065305;28;20559;-75
2023/04/08 03:37:30;;;;;;;25.20;11.33;;;6.00;99.90;;;;;;5067234;28;20193;-76
2023/04/08 03:39:56;;;;;;;27.10;12.27;;;6.00;99.90;;;;;;5064397;28;20443;-78
2023/04/08 03:42:22;;;;;;;29.53;10.83;;;6.00;99.90;;;;;;5068710;28;20221;-75
2023/04/08 03:44:47;;;;;;;23.70;9.30;;;6.10;99.90;;;;;;5067281;28;20205;-73
2023/04/08 03:47:13;;;;;;;21.90;10.50;;;6.00;99.90;;;;;;5068525;28;20672;-76
2023/04/08 03:49:39;;;;;;;21.73;9.80;;;6.00;99.90;;;;;;5067104;28;20221;-75
2023/04/08 03:52:05;;;;;;;17.67;9.70;;;6.00;99.90;;;;;;5067548;28;20201;-76
2023/04/08 03:54:30;;;;;;;21.60;10.30;;;6.10;99.90;;;;;;5070212;28;20180;-74
2023/04/08 03:56:56;;;;;;;17.63;8.90;;;6.00;99.90;;;;;;5071725;28;20199;-74
2023/04/08 03:59:22;;;;;;;18.60;8.80;;;6.00;99.90;;;;;;5069091;28;20675;-75
2023/04/08 04:01:47;;;;;;;21.90;8.50;;;6.10;99.90;;;;;;5067372;28;20209;-79
2023/04/08 04:04:13;;;;;;;25.00;8.67;;;6.10;99.90;;;;;;5068585;28;20838;-75
2023/04/08 04:06:39;;;;;;;18.23;8.70;;;6.00;99.90;;;;;;5070244;28;20187;-71
2023/04/08 04:09:04;;;;;;;18.93;8.73;;;6.20;99.90;;;;;;5069646;28;20753;-73
2023/04/08 04:11:30;;;;;;;14.13;7.37;;;6.00;99.90;;;;;;5072845;28;20216;-76
2023/04/08 04:13:56;;;;;;;24.10;9.50;;;6.10;99.90;;;;;;5071303;28;20644;-75
2023/04/08 04:16:21;;;;;;;13.07;7.13;;;6.00;99.90;;;;;;5069226;28;20184;-79
2023/04/08 04:18:47;;;;;;;14.40;7.60;;;6.10;99.90;;;;;;5065210;28;20188;-78
2023/04/08 04:21:12;;;;;;;19.23;8.10;;;5.90;99.90;;;;;;5068512;28;20454;-75
2023/04/08 04:23:38;;;;;;;13.30;6.77;;;6.00;99.90;;;;;;5065474;28;20205;-77
2023/04/08 04:26:10;;;;;;;12.47;6.80;;;6.00;99.90;;;;;;5066416;28;20260;-73
2023/04/08 04:28:36;;;;;;;16.67;6.80;;;6.00;99.90;;;;;;5066455;28;20250;-74
2023/04/08 04:31:02;;;;;;;17.40;8.13;;;6.00;99.90;;;;;;5065562;28;20450;-76
2023/04/08 04:33:27;;;;;;;17.97;8.60;;;6.10;99.90;;;;;;5066434;28;20504;-77
2023/04/08 04:35:53;;;;;;;15.57;7.10;;;6.10;99.90;;;;;;5070662;28;20196;-75
2023/04/08 04:38:18;;;;;;;19.90;8.07;;;5.90;99.90;;;;;;5068883;28;20342;-78
2023/04/08 04:40:44;;;;;;;14.00;6.73;;;6.00;99.90;;;;;;5067879;28;20196;-76
2023/04/08 04:43:10;;;;;;;15.87;6.90;;;6.00;99.90;;;;;;5066817;28;20224;-75
2023/04/08 04:45:35;;;;;;;15.57;6.57;;;6.00;99.90;;;;;;5070703;28;20181;-75
2023/04/08 04:48:02;;;;;;;10.30;6.47;;;6.00;99.90;;;;;;5068766;28;20199;-77
2023/04/08 04:50:28;;;;;;;13.83;6.50;;;6.00;99.90;;;;;;5067035;28;20181;-74
2023/04/08 04:52:53;;;;;;;14.53;7.70;;;6.00;99.90;;;;;;5068190;28;20470;-77
2023/04/08 04:55:21;;;;;;;12.47;6.20;;;6.00;99.90;;;;;;5069256;28;20618;-73
2023/04/08 04:57:49;;;;;;;15.60;7.00;;;6.00;99.90;;;;;;5088006;28;20223;-74
2023/04/08 05:00:15;;;;;;;13.80;5.90;;;6.00;99.90;;;;;;5072594;28;20435;-75
2023/04/08 05:02:41;;;;;;;18.60;7.00;;;6.00;99.90;;;;;;5070435;28;20443;-76
2023/04/08 05:05:07;;;;;;;13.63;7.00;;;6.00;99.90;;;;;;5071085;28;20463;-75
2023/04/08 05:07:37;;;;;;;13.33;5.90;;;6.00;99.90;;;;;;5069639;28;20195;-75
2023/04/08 05:10:03;;;;;;;18.33;6.70;;;6.00;99.90;;;;;;5068677;28;20488;-75
2023/04/08 05:12:29;;;;;;;19.37;7.23;;;6.00;99.90;;;;;;5068894;28;20952;-76
2023/04/08 05:14:57;;;;;;;16.53;7.80;;;6.00;99.90;;;;;;5069453;28;20510;-76
2023/04/08 05:17:23;;;;;;;17.33;7.20;;;6.00;99.90;;;;;;5084396;28;20482;-77
2023/04/08 05:19:49;;;;;;;17.03;6.70;;;6.00;99.90;;;;;;5070807;28;20474;-76
2023/04/08 05:22:14;;;;;;;14.97;6.87;;;6.00;99.90;;;;;;5066039;28;20686;-79
2023/04/08 05:24:40;;;;;;;15.53;6.67;;;6.00;99.90;;;;;;5072216;28;20211;-76
2023/04/08 05:27:05;;;;;;;9.80;6.00;;;6.00;99.90;;;;;;5070194;28;20181;-76
2023/04/08 05:29:31;;;;;;;18.07;7.07;;;6.10;99.90;;;;;;5078881;28;20272;-82
2023/04/08 05:31:57;;;;;;;13.30;6.43;;;6.10;99.90;;;;;;5092079;28;20281;-83
2023/04/08 05:34:23;;;;;;;14.70;7.20;;;6.10;99.90;;;;;;5093615;28;20186;-84
2023/04/08 05:36:52;;;;;;;13.43;7.23;;;6.10;99.90;;;;;;5094357;28;20501;-82
2023/04/08 05:39:18;;;;;;;20.50;7.63;;;6.10;99.90;;;;;;5091463;28;20169;-82
2023/04/08 05:41:44;;;;;;;18.70;7.33;;;6.10;99.90;;;;;;5093286;28;20463;-83
2023/04/08 05:44:10;;;;;;;16.30;6.90;;;6.20;99.90;;;;;;5094264;28;20470;-83
2023/04/08 05:46:37;;;;;;;16.03;7.10;;;6.20;99.90;;;;;;5094156;28;20502;-82
2023/04/08 05:49:02;;;;;;;19.03;6.23;;;6.30;99.90;;;;;;5093377;28;20204;-82
2023/04/08 05:51:28;;;;;;;22.97;7.20;;;6.20;99.90;;;;;;5086524;28;20451;-75
2023/04/08 05:53:54;;;;;;;16.97;6.97;;;6.20;99.90;;;;;;5076799;28;20191;-78
2023/04/08 05:56:19;;;;;;;11.80;5.90;;;6.40;99.90;;;;;;5075793;28;20638;-79
2023/04/08 05:58:46;;;;;;;14.33;6.83;;;6.30;99.90;;;;;;5079374;28;20594;-77
2023/04/08 06:01:11;;;;;;;19.80;6.43;;;6.30;99.90;;;;;;5076831;28;20185;-77
2023/04/08 06:03:37;;;;;;;10.67;6.23;;;6.30;99.90;;;;;;5078138;28;20486;-80
2023/04/08 06:06:08;;;;;;;16.87;6.77;;;6.20;99.90;;;;;;5078507;28;20185;-78
2023/04/08 06:08:33;;;;;;;13.33;7.40;;;6.40;99.90;;;;;;5082451;28;20216;-78
2023/04/08 06:10:59;;;;;;;20.13;8.43;;;6.50;99.90;;;;;;5090744;28;20435;-83
2023/04/08 06:13:25;;;;;;;10.40;6.33;;;6.50;99.90;;;;;;5092748;28;20189;-83
2023/04/08 06:15:50;;;;;;;15.47;7.07;;;6.60;99.90;;;;;;5094411;28;20414;-81
2023/04/08 06:18:16;;;;;;;11.10;6.10;;;6.70;99.90;;;;;;5100662;28;20283;-77
2023/04/08 06:20:42;;;;;;;15.23;6.20;;;6.70;99.90;;;;;;5083685;28;20583;-76
2023/04/08 06:23:07;;;;;;;12.80;6.37;;;6.80;99.90;;;;;;5079302;28;20223;-75
2023/04/08 06:25:33;;;;;;;12.77;7.43;;;6.80;99.90;;;;;;5063472;28;20713;-80
2023/04/08 06:27:59;;;;;;;13.37;6.50;;;6.80;99.90;;;;;;5066707;28;20236;-75
2023/04/08 06:30:24;;;;;;;15.53;6.83;;;6.90;99.90;;;;;;5067459;28;20612;-75
2023/04/08 06:32:50;;;;;;;13.90;6.90;;;7.00;99.90;;;;;;5067369;28;20260;-74
2023/04/08 06:35:15;;;;;;;11.77;6.00;;;7.00;99.90;;;;;;5068105;28;20181;-79
2023/04/08 06:37:41;;;;;;;13.13;6.70;;;6.90;99.90;;;;;;5070326;28;20537;-77
2023/04/08 06:40:07;;;;;;;15.47;6.60;;;6.90;99.90;;;;;;5077979;28;20189;-75
2023/04/08 06:42:33;;;;;;;18.17;7.00;;;7.00;99.90;;;;;;5080969;28;20220;-75
2023/04/08 06:44:58;;;;;;;11.20;6.90;;;6.80;99.90;;;;;;5084159;28;20532;-75
2023/04/08 06:47:24;;;;;;;12.43;6.37;;;6.90;99.90;;;;;;5065783;28;20185;-78
2023/04/08 06:49:50;;;;;;;21.57;6.80;;;7.00;99.90;;;;;;5081365;28;20283;-75
2023/04/08 06:52:16;;;;;;;10.80;6.67;;;6.90;99.90;;;;;;5082467;28;20673;-75
2023/04/08 06:54:42;;;;;;;14.40;7.73;;;6.90;99.90;;;;;;5064738;28;20223;-79
2023/04/08 06:57:07;;;;;;;12.23;5.50;;;7.10;99.90;;;;;;5067402;28;20184;-76
2023/04/08 06:59:33;;;;;;;12.63;6.07;;;6.90;99.90;;;;;;5064651;28;20780;-76
2023/04/08 07:01:59;;;;;;;10.97;5.40;;;7.10;99.90;;;;;;5062172;28;20205;-77
2023/04/08 07:04:24;;;;;;;14.07;7.40;;;7.10;99.90;;;;;;5066693;28;20489;-75
2023/04/08 07:06:50;;;;;;;11.30;5.77;;;7.00;99.90;;;;;;5068596;28;20242;-75
2023/04/08 07:09:16;;;;;;;11.37;5.70;;;7.10;99.90;;;;;;5068510;28;20169;-75
2023/04/08 07:11:41;;;;;;;14.57;7.50;;;7.10;99.90;;;;;;5068604;28;20204;-77
2023/04/08 07:14:07;;;;;;;10.57;5.87;;;7.10;99.90;;;;;;5073958;28;20204;-76
2023/04/08 07:16:32;;;;;;;8.27;4.60;;;7.10;99.90;;;;;;5069888;28;20185;-75
2023/04/08 07:18:58;;;;;;;11.73;6.97;;;7.10;99.90;;;;;;5072599;28;20643;-74
2023/04/08 07:21:24;;;;;;;11.30;7.20;;;7.20;99.90;;;;;;5074253;28;20177;-76
2023/04/08 07:23:50;;;;;;;9.40;5.87;;;7.20;99.90;;;;;;5072854;28;20201;-77
2023/04/08 07:26:15;;;;;;;12.60;5.70;;;7.20;99.90;;;;;;5074258;28;20491;-77
2023/04/08 07:28:41;;;;;;;8.40;5.23;;;7.30;99.90;;;;;;5074155;28;20185;-77
2023/04/08 07:31:15;;;;;;;10.97;5.60;;;7.30;99.90;;;;;;5073517;28;20185;-83
2023/04/08 07:33:41;;;;;;;13.83;6.30;;;7.30;99.90;;;;;;5107252;28;20192;-83
2023/04/08 07:36:09;;;;;;;9.77;5.20;;;7.30;99.90;;;;;;5106946;28;20443;-83
2023/04/08 07:38:35;;;;;;;12.73;6.33;;;7.20;99.90;;;;;;5090858;28;20175;-83
2023/04/08 07:41:01;;;;;;;10.83;5.67;;;7.20;99.90;;;;;;5092387;28;20439;-82
2023/04/08 07:43:26;;;;;;;11.83;4.87;;;7.20;99.90;;;;;;5085031;28;20303;-77
2023/04/08 07:45:52;;;;;;;9.43;5.20;;;7.20;99.90;;;;;;5066238;28;20558;-77
2023/04/08 07:48:17;;;;;;;8.23;4.53;;;7.20;99.90;;;;;;5064164;28;20268;-75
2023/04/08 07:50:44;;;;;;;6.70;4.47;;;7.50;99.90;;;;;;5065486;28;20667;-75
2023/04/08 07:53:10;;;;;;;6.80;4.80;;;7.30;99.90;;;;;;5079965;28;20215;-74
2023/04/08 07:55:38;;;;;;;6.47;4.27;;;7.30;99.90;;;;;;5066573;28;20517;-76
2023/04/08 07:58:03;;;;;;;13.83;5.37;;;7.40;99.90;;;;;;5081877;28;20185;-78
2023/04/08 08:00:30;;;;;;;10.67;4.70;;;7.40;99.90;;;;;;5067697;28;20428;-74
2023/04/08 08:02:55;;;;;;;8.93;5.00;;;7.30;99.90;;;;;;5063084;28;20262;-77
2023/04/08 08:05:21;;;;;;;9.03;4.40;;;7.50;99.90;;;;;;5064292;28;20471;-76
2023/04/08 08:07:47;;;;;;;9.30;4.67;;;7.50;99.90;;;;;;5065993;28;20212;-79
2023/04/08 08:10:12;;;;;;;7.03;4.43;;;7.40;99.90;;;;;;5081247;28;20181;-75
2023/04/08 08:12:38;;;;;;;8.60;5.03;;;7.50;99.90;;;;;;5062586;28;20197;-77
2023/04/08 08:15:04;;;;;;;7.63;4.07;;;7.50;99.90;;;;;;5064285;28;20660;-76
2023/04/08 08:17:32;;;;;;;13.20;4.70;;;7.60;99.90;;;;;;5065659;28;20213;-75
2023/04/08 08:19:58;;;;;;;8.20;4.30;;;7.60;99.90;;;;;;5067493;28;20518;-76
2023/04/08 08:22:24;;;;;;;14.03;5.50;;;7.60;99.90;;;;;;5066962;28;20529;-77
2023/04/08 08:24:58;;;;;;;8.17;4.13;;;7.70;99.90;;;;;;5064502;28;21077;-75
2023/04/08 08:27:24;;;;;;;10.03;4.00;;;7.80;99.90;;;;;;5066376;28;20180;-80
2023/04/08 08:29:50;;;;;;;15.87;4.63;;;7.80;99.90;;;;;;5068338;28;20431;-74
2023/04/08 08:32:15;;;;;;;9.90;5.40;;;7.80;99.90;;;;;;5066601;28;20811;-76
2023/04/08 08:34:41;;;;;;;10.33;5.07;;;7.90;99.90;;;;;;5063103;28;20181;-75
2023/04/08 08:37:07;;;;;;;11.00;5.00;;;8.00;99.90;;;;;;5068641;28;20177;-76
2023/04/08 08:39:32;;;;;;;9.90;5.30;;;8.20;99.90;;;;;;5065976;28;20280;-76
2023/04/08 08:41:58;;;;;;;10.53;5.00;;;8.30;99.90;;;;;;5067123;28;20208;-76
2023/04/08 08:44:24;;;;;;;7.93;4.03;;;8.50;99.90;;;;;;5067286;28;20692;-76
2023/04/08 08:46:50;;;;;;;10.30;4.83;;;8.50;99.90;;;;;;5087211;28;20189;-76
2023/04/08 08:49:16;;;;;;;11.57;5.07;;;8.50;99.90;;;;;;5069151;28;20435;-76
2023/04/08 08:51:45;;;;;;;5.93;3.30;;;8.60;99.90;;;;;;5068974;28;20588;-75
2023/04/08 08:54:11;;;;;;;10.87;5.20;;;8.60;99.90;;;;;;5081249;28;20185;-75
2023/04/08 08:56:37;;;;;;;8.63;4.43;;;8.70;99.90;;;;;;5068950;28;20450;-75
2023/04/08 08:59:03;;;;;;;9.83;5.10;;;8.60;99.90;;;;;;5070511;28;20439;-75
2023/04/08 09:01:33;;;;;;;6.13;4.40;;;8.70;99.90;;;;;;5069263;28;20269;-74
2023/04/08 09:04:18;;;;;;;8.00;4.73;;;8.90;99.90;;;;;;5064205;28;20315;-75
2023/04/08 09:06:46;;;;;;;8.90;3.50;;;9.10;99.90;;;;;;5067662;28;20971;-75
2023/04/08 09:09:12;;;;;;;8.17;4.60;;;9.20;99.90;;;;;;5068649;28;20416;-75
2023/04/08 09:11:39;;;;;;;17.33;6.10;;;9.50;99.90;;;;;;5066522;28;20880;-77
2023/04/08 09:14:18;;;;;;;9.23;5.07;;;9.60;99.90;;;;;;5069794;28;20463;-76
2023/04/08 09:16:44;;;;;;;7.20;4.37;;;9.60;99.90;;;;;;5086573;28;20825;-75
2023/04/08 09:19:10;;;;;;;8.80;4.80;;;9.60;99.90;;;;;;5066557;28;20447;-79
2023/04/08 09:21:37;;;;;;;13.97;5.87;;;9.50;99.90;;;;;;5067658;28;20203;-76
2023/04/08 09:24:03;;;;;;;10.70;5.30;;;9.40;99.90;;;;;;5086037;28;20451;-75
2023/04/08 09:26:29;;;;;;;8.30;5.47;;;9.50;99.90;;;;;;5069912;28;20415;-75
2023/04/08 09:29:07;;;;;;;12.27;6.07;;;9.70;99.90;;;;;;5068800;28;20181;-76
2023/04/08 09:31:41;;;;;;;10.93;6.00;;;9.90;99.90;;;;;;5064809;28;20197;-76
2023/04/08 09:34:10;;;;;;;8.23;4.20;;;9.90;99.90;;;;;;5067868;28;20419;-75
2023/04/08 09:36:36;;;;;;;7.07;4.20;;;10.10;99.90;;;;;;5065082;28;20443;-76
2023/04/08 09:39:02;;;;;;;6.13;3.77;;;10.40;99.90;;;;;;5065237;28;20439;-76
2023/04/08 09:41:35;;;;;;;10.90;5.93;;;10.40;99.90;;;;;;5058218;28;20470;-74
2023/04/08 09:44:09;;;;;;;11.60;4.67;;;10.50;99.90;;;;;;5066133;28;20463;-75
2023/04/08 09:46:42;;;;;;;12.33;5.30;;;10.60;99.90;;;;;;5067214;28;20674;-76
2023/04/08 09:49:28;;;;;;;8.27;4.60;;;10.70;99.90;;;;;;5064542;28;20438;-76
2023/04/08 09:51:57;;;;;;;7.73;4.50;;;10.70;99.20;;;;;;5064917;28;20475;-76
2023/04/08 09:54:34;;;;;;;9.87;5.03;;;10.90;99.10;;;;;;5080474;28;20445;-79
2023/04/08 09:57:08;;;;;;;10.07;5.87;;;10.90;97.50;;;;;;5067446;28;20502;-75
2023/04/08 09:59:37;;;;;;;13.20;6.40;;;10.80;98.60;;;;;;5061302;28;20438;-77
2023/04/08 10:02:10;;;;;;;12.50;6.20;;;10.90;98.20;;;;;;5066852;28;20476;-80
2023/04/08 10:04:40;;;;;;;9.07;4.83;;;10.90;97.60;;;;;;5068963;28;20569;-80
2023/04/08 10:07:07;;;;;;;7.20;4.47;;;11.00;97.30;;;;;;5068754;28;20457;-76
2023/04/08 10:09:34;;;;;;;12.80;5.30;;;10.90;98.30;;;;;;5064875;28;20408;-76
2023/04/08 10:12:02;;;;;;;9.40;5.00;;;10.90;98.10;;;;;;5063822;28;20451;-77
2023/04/08 10:14:27;;;;;;;9.70;3.83;;;10.80;98.10;;;;;;5068616;28;20489;-78
2023/04/08 10:17:35;;;;;;;8.20;4.33;;;10.90;98.40;;;;;;5070989;28;20423;-76
2023/04/08 10:20:01;;;;;;;10.20;4.60;;;10.90;98.40;;;;;;5068318;28;20197;-75
2023/04/08 10:22:32;;;;;;;11.53;5.23;;;11.20;97.20;;;;;;5087349;28;20853;-73
2023/04/08 10:25:25;;;;;;;6.80;4.20;;;11.20;97.00;;;;;;5085145;28;20295;-76
2023/04/08 10:27:50;;;;;;;8.73;4.50;;;11.30;96.20;;;;;;5068792;28;20797;-75
2023/04/08 10:30:27;;;;;;;9.97;4.77;;;11.40;95.30;;;;;;5067500;28;20949;-75
2023/04/08 10:33:00;;;;;;;7.17;4.50;;;11.50;94.30;;;;;;5068720;28;20446;-79
2023/04/08 10:35:35;;;;;;;8.70;5.43;;;11.60;94.70;;;;;;5084262;28;20506;-76
2023/04/08 10:38:02;;;;;;;10.53;4.90;;;11.70;93.30;;;;;;5067165;28;20763;-75
2023/04/08 10:40:28;;;;;;;12.57;5.50;;;11.70;93.90;;;;;;5067201;28;20434;-76
2023/04/08 10:42:54;;;;;;;13.77;5.87;;;11.60;94.30;;;;;;5068213;28;20492;-74
2023/04/08 10:45:21;;;;;;;10.30;4.30;;;11.70;93.40;;;;;;5067591;28;20266;-76
2023/04/08 10:47:46;;;;;;;10.87;4.70;;;11.60;94.60;;;;;;5067819;28;20675;-75
2023/04/08 10:50:13;;;;;;;12.20;5.40;;;11.70;94.20;;;;;;5067651;28;20450;-74
2023/04/08 10:52:53;;;;;;;13.60;5.80;;;11.60;93.90;;;;;;5067846;28;20203;-77
2023/04/08 10:55:23;;;;;;;14.83;5.13;;;11.40;93.90;;;;;;5064686;28;20434;-75
2023/04/08 10:57:52;;;;;;;9.80;5.23;;;11.20;93.70;;;;;;5067899;28;20448;-78
2023/04/08 11:00:31;;;;;;;12.73;6.13;;;11.00;94.00;;;;;;5064253;28;20475;-75
2023/04/08 11:03:01;;;;;;;8.10;4.87;;;10.80;94.00;;;;;;5065170;28;20458;-78
2023/04/08 11:05:27;;;;;;;11.90;5.83;;;10.60;94.80;;;;;;5066332;28;21006;-75
2023/04/08 11:07:53;;;;;;;11.60;6.70;;;10.50;94.80;;;;;;5068743;28;20421;-75
2023/04/08 11:10:19;;;;;;;9.83;5.40;;;10.50;95.00;;;;;;5073651;28;20185;-77
2023/04/08 11:12:45;;;;;;;13.10;5.90;;;10.50;94.50;;;;;;5071203;28;20450;-75
2023/04/08 11:15:12;;;;;;;12.67;5.53;;;10.50;94.90;;;;;;5068440;28;20195;-75
2023/04/08 11:17:38;;;;;;;10.10;5.40;;;10.50;94.20;;;;;;5092083;28;20424;-82
2023/04/08 11:20:05;;;;;;;8.90;5.33;;;10.60;95.00;;;;;;5092241;28;20426;-81
2023/04/08 11:22:33;;;;;;;6.77;4.60;;;10.50;96.40;;;;;;5107822;28;20232;-82
2023/04/08 11:24:59;;;;;;;14.17;6.30;;;10.70;95.20;;;;;;5092136;28;20532;-75
2023/04/08 11:27:25;;;;;;;12.03;5.33;;;10.50;95.30;;;;;;5068667;28;20787;-75
2023/04/08 11:29:55;;;;;;;10.70;6.00;;;10.40;95.50;;;;;;5067194;28;20427;-75
2023/04/08 11:32:22;;;;;;;17.83;6.40;;;10.40;95.80;;;;;;5067549;28;20554;-75
2023/04/08 11:34:51;;;;;;;6.83;4.80;;;10.20;95.70;;;;;;5067759;28;20916;-76
2023/04/08 11:37:17;;;;;;;14.60;4.77;;;10.20;96.50;;;;;;5067199;28;20408;-75
2023/04/08 11:39:44;;;;;;;10.57;5.67;;;10.20;96.20;;;;;;5067035;28;20422;-76
2023/04/08 11:42:28;;;;;;;13.10;6.70;;;10.20;96.30;;;;;;5066145;28;20212;-76
2023/04/08 11:44:54;;;;;;;10.30;4.93;;;10.10;96.80;;;;;;5067888;28;20978;-75
2023/04/08 11:47:20;;;;;;;10.23;5.87;;;10.00;97.80;;;;;;5067480;28;20427;-75
2023/04/08 11:49:46;;;;;;;12.30;6.50;;;10.00;98.60;;;;;;5065020;28;20169;-76
2023/04/08 11:52:13;;;;;;;9.67;5.40;;;10.00;98.60;;;;;;5066499;28;20434;-76
2023/04/08 11:54:42;;;;;;;13.43;4.77;;;10.00;98.40;;;;;;5081178;28;20427;-77
2023/04/08 11:57:11;;;;;;;11.67;5.97;;;10.10;98.10;;;;;;5068432;28;20430;-77
2023/04/08 11:59:36;;;;;;;8.87;5.50;;;10.00;98.20;;;;;;5083526;28;20512;-75
2023/04/08 12:02:02;;;;;;;8.33;5.00;;;10.00;97.60;;;;;;5066890;28;20530;-78
2023/04/08 12:04:29;;;;;;;10.87;5.57;;;9.90;98.10;;;;;;5082519;28;20201;-77
2023/04/08 12:06:55;;;;;;;15.00;5.77;;;10.00;96.60;;;;;;5068334;28;20423;-78
2023/04/08 12:09:21;;;;;;;14.27;6.30;;;10.00;97.10;;;;;;5068152;28;20434;-78
2023/04/08 12:11:46;;;;;;;8.47;5.27;;;10.00;96.60;;;;;;5083714;28;20534;-78
2023/04/08 12:14:12;;;;;;;14.27;5.83;;;9.90;96.10;;;;;;5067926;28;20534;-76
2023/04/08 12:16:38;;;;;;;9.90;5.23;;;9.80;95.90;;;;;;5067636;28;20181;-76
2023/04/08 12:19:03;;;;;;;7.70;5.10;;;9.90;95.80;;;;;;5066849;28;20177;-77
2023/04/08 12:21:29;;;;;;;11.60;5.10;;;9.90;95.80;;;;;;5081278;28;20182;-75
2023/04/08 12:23:55;;;;;;;9.80;5.50;;;9.80;95.80;;;;;;5081874;28;20299;-77
2023/04/08 12:26:20;;;;;;;8.70;5.60;;;9.90;94.60;;;;;;5067978;28;20664;-75
2023/04/08 12:28:46;;;;;;;9.97;5.20;;;9.80;95.00;;;;;;5084059;28;20180;-75
2023/04/08 12:31:12;;;;;;;8.60;5.07;;;9.70;95.00;;;;;;5068371;28;20203;-75
2023/04/08 12:33:37;;;;;;;12.40;6.40;;;9.90;94.50;;;;;;5069772;28;20197;-76
2023/04/08 12:36:03;;;;;;;9.93;5.70;;;9.90;94.80;;;;;;5088108;28;20812;-75
2023/04/08 12:38:28;;;;;;;10.07;5.70;;;9.90;95.10;;;;;;5087173;28;20181;-75
2023/04/08 12:40:55;;;;;;;12.03;5.90;;;10.00;94.90;;;;;;5073107;28;20272;-75
2023/04/08 12:43:22;;;;;;;13.63;5.87;;;10.00;94.70;;;;;;5070721;28;20197;-75
2023/04/08 12:45:48;;;;;;;8.03;4.53;;;9.90;94.80;;;;;;5071010;28;20467;-77